createdAt,value
2019-06-01T00:01:34.534Z,100318.17
2019-06-01T00:04:40.900Z,100316.11
2019-06-01T00:07:47.050Z,100320.50
2019-06-01T00:10:52.243Z,100318.44
2019-06-01T00:13:57.473Z,100319.49
2019-06-01T00:17:02.667Z,100320.08
2019-06-01T00:20:08.046Z,100319.13
2019-06-01T00:23:13.286Z,100313.33
2019-06-01T00:26:18.504Z,100309.28
2019-06-01T00:29:23.719Z,100310.45
2019-06-01T00:32:29.015Z,100309.33
2019-06-01T00:35:34.236Z,100310.02
2019-06-01T00:38:39.454Z,100304.02
2019-06-01T00:41:45.758Z,100300.30
2019-06-01T00:44:52.542Z,100303.94
2019-06-01T00:47:57.789Z,100300.73
2019-06-01T00:51:02.984Z,100304.80
2019-06-01T00:54:08.119Z,100303.27
2019-06-01T00:57:13.894Z,100298.66
2019-06-01T01:00:19.260Z,100302.97
2019-06-01T01:03:24.494Z,100303.20
2019-06-01T01:06:29.694Z,100300.98
2019-06-01T01:09:34.919Z,100302.05
2019-06-01T01:12:58.763Z,100300.02
2019-06-01T01:16:03.885Z,100301.86
2019-06-01T01:19:09.081Z,100307.30
2019-06-01T01:22:14.384Z,100305.42
2019-06-01T01:25:19.535Z,100308.03
2019-06-01T01:28:24.693Z,100307.11
2019-06-01T01:31:29.817Z,100301.59
2019-06-01T01:34:35.239Z,100302.35
2019-06-01T01:37:40.331Z,100299.78
2019-06-01T01:40:45.569Z,100304.33
2019-06-01T01:43:50.686Z,100303.78
2019-06-01T01:46:56.906Z,100307.75
2019-06-01T01:50:03.095Z,100301.95
2019-06-01T01:53:08.421Z,100307.78
2019-06-01T01:56:13.631Z,100306.42
2019-06-01T01:59:18.814Z,100304.98
2019-06-01T02:02:23.969Z,100309.02
2019-06-01T02:05:29.208Z,100299.05
2019-06-01T02:08:34.325Z,100298.96
2019-06-01T02:11:39.539Z,100300.61
2019-06-01T02:14:44.686Z,100298.75
2019-06-01T02:17:49.809Z,100298.54
2019-06-01T02:20:56.073Z,100299.77
2019-06-01T02:24:01.477Z,100297.81
2019-06-01T02:27:06.691Z,100291.37
2019-06-01T02:30:13.391Z,100296.27
2019-06-01T02:33:18.536Z,100293.27
2019-06-01T02:36:23.995Z,100292.45
2019-06-01T02:39:29.248Z,100285.91
2019-06-01T02:42:34.495Z,100290.45
2019-06-01T02:45:39.731Z,100292.42
2019-06-01T02:48:44.823Z,100290.06
2019-06-01T02:51:50.051Z,100283.30
2019-06-01T02:54:55.586Z,100283.30
2019-06-01T02:58:02.244Z,100285.98
2019-06-01T03:01:36.781Z,100287.23
2019-06-01T03:04:42.347Z,100278.63
2019-06-01T03:07:49.659Z,100281.53
2019-06-01T03:10:57.618Z,100286.92
2019-06-01T03:14:04.966Z,100286.70
2019-06-01T03:17:13.052Z,100284.72
2019-06-01T03:20:19.769Z,100282.66
2019-06-01T03:23:26.320Z,100288.09
2019-06-01T03:26:33.079Z,100282.98
2019-06-01T03:29:42.403Z,100287.86
2019-06-01T03:32:47.562Z,100288.37
2019-06-01T03:35:52.671Z,100286.20
2019-06-01T03:38:57.891Z,100290.24
2019-06-01T03:42:03.442Z,100291.40
2019-06-01T03:45:09.960Z,100289.33
2019-06-01T03:48:15.145Z,100290.27
2019-06-01T03:51:20.293Z,100289.73
2019-06-01T03:54:25.423Z,100295.84
2019-06-01T03:57:30.689Z,100295.84
2019-06-01T04:00:35.883Z,100295.95
2019-06-01T04:03:41.072Z,100291.47
2019-06-01T04:06:46.264Z,100302.05
2019-06-01T04:09:51.422Z,100302.84
2019-06-01T04:12:57.656Z,100302.88
2019-06-01T04:16:03.725Z,100303.61
2019-06-01T04:19:10.030Z,100304.63
2019-06-01T04:22:15.326Z,100304.98
2019-06-01T04:25:20.494Z,100312.00
2019-06-01T04:28:25.749Z,100312.80
2019-06-01T04:31:31.597Z,100312.70
2019-06-01T04:34:36.758Z,100312.83
2019-06-01T04:37:42.100Z,100316.30
2019-06-01T04:40:47.291Z,100312.94
2019-06-01T04:43:52.495Z,100318.37
2019-06-01T04:46:57.691Z,100324.39
2019-06-01T04:50:02.883Z,100315.05
2019-06-01T04:53:08.831Z,100310.95
2019-06-01T04:56:15.269Z,100318.58
2019-06-01T04:59:20.457Z,100315.95
2019-06-01T05:02:25.638Z,100312.02
2019-06-01T05:05:30.746Z,100312.02
2019-06-01T05:08:35.874Z,100312.16
2019-06-01T05:11:41.037Z,100311.86
2019-06-01T05:14:46.162Z,100315.56
2019-06-01T05:17:51.289Z,100320.59
2019-06-01T05:20:56.476Z,100323.38
2019-06-01T05:24:01.755Z,100323.38
2019-06-01T05:27:06.962Z,100324.97
2019-06-01T05:33:36.882Z,100328.16
2019-06-01T05:36:34.088Z,100332.45
2019-06-01T05:39:39.243Z,100337.36
2019-06-01T05:42:44.350Z,100329.23
2019-06-01T05:45:49.508Z,100334.63
2019-06-01T05:48:54.614Z,100334.63
2019-06-01T05:51:59.688Z,100328.42
2019-06-01T05:55:05.401Z,100330.50
2019-06-01T05:58:10.945Z,100333.83
2019-06-01T06:01:16.445Z,100332.55
2019-06-01T06:04:21.668Z,100328.92
2019-06-01T06:07:26.810Z,100327.47
2019-06-01T06:10:31.925Z,100330.07
2019-06-01T06:13:38.121Z,100324.03
2019-06-01T06:16:43.326Z,100323.55
2019-06-01T06:19:48.488Z,100314.31
2019-06-01T06:22:53.568Z,100324.05
2019-06-01T06:25:59.936Z,100317.88
2019-06-01T06:29:05.030Z,100324.26
2019-06-01T06:32:10.259Z,100322.89
2019-06-01T06:35:15.594Z,100320.49
2019-06-01T06:38:21.843Z,100321.14
2019-06-01T06:41:28.251Z,100321.34
2019-06-01T06:44:33.337Z,100320.38
2019-06-01T06:47:38.535Z,100322.34
2019-06-01T06:50:43.632Z,100320.97
2019-06-01T06:53:48.807Z,100321.57
2019-06-01T06:56:53.982Z,100318.02
2019-06-01T06:59:59.094Z,100321.45
2019-06-01T07:03:04.178Z,100315.42
2019-06-01T07:06:09.357Z,100315.48
2019-06-01T07:09:14.592Z,100314.45
2019-06-01T07:12:19.697Z,100314.83
2019-06-01T07:15:25.540Z,100316.06
2019-06-01T07:18:31.848Z,100311.58
2019-06-01T07:21:38.184Z,100309.98
2019-06-01T07:24:43.352Z,100313.21
2019-06-01T07:27:48.487Z,100313.26
2019-06-01T07:30:53.716Z,100309.64
2019-06-01T07:33:58.934Z,100311.94
2019-06-01T07:37:04.083Z,100309.77
2019-06-01T07:40:13.362Z,100298.39
2019-06-01T07:43:16.110Z,100294.03
2019-06-01T07:46:21.291Z,100296.28
2019-06-01T07:49:26.966Z,100302.19
2019-06-01T07:52:32.470Z,100295.72
2019-06-01T07:55:38.566Z,100295.00
2019-06-01T07:58:43.782Z,100293.80
2019-06-01T08:01:48.940Z,100293.87
2019-06-01T08:04:54.884Z,100290.39
2019-06-01T08:08:00.215Z,100289.30
2019-06-01T08:11:05.358Z,100284.19
2019-06-01T08:14:10.505Z,100291.35
2019-06-01T08:17:15.667Z,100289.77
2019-06-01T08:20:21.899Z,100291.59
2019-06-01T08:23:28.391Z,100289.06
2019-06-01T08:26:33.714Z,100279.39
2019-06-01T08:29:39.126Z,100277.55
2019-06-01T08:32:44.211Z,100276.93
2019-06-01T08:35:49.379Z,100279.09
2019-06-01T08:38:54.568Z,100278.00
2019-06-01T08:41:59.732Z,100270.39
2019-06-01T08:45:05.169Z,100260.11
2019-06-01T08:48:10.460Z,100261.20
2019-06-01T08:51:15.570Z,100259.92
2019-06-01T08:54:20.713Z,100255.64
2019-06-01T08:57:26.127Z,100251.88
2019-06-01T09:00:32.533Z,100242.48
2019-06-01T09:03:45.559Z,100247.25
2019-06-01T09:06:44.682Z,100252.56
2019-06-01T09:09:51.010Z,100247.11
2019-06-01T09:12:56.094Z,100242.91
2019-06-01T09:16:01.223Z,100238.33
2019-06-01T09:19:06.370Z,100239.53
2019-06-01T09:22:11.481Z,100243.44
2019-06-01T09:25:16.613Z,100246.57
2019-06-01T09:28:21.840Z,100242.42
2019-06-01T09:31:28.333Z,100234.85
2019-06-01T09:34:34.500Z,100234.18
2019-06-01T09:37:39.730Z,100240.73
2019-06-01T09:40:44.907Z,100237.13
2019-06-01T09:43:51.051Z,100236.61
2019-06-01T09:46:56.298Z,100239.12
2019-06-01T09:50:01.558Z,100241.39
2019-06-01T09:53:06.842Z,100231.54
2019-06-01T09:56:11.992Z,100223.48
2019-06-01T09:59:17.264Z,100228.14
2019-06-01T10:02:23.441Z,100231.48
2019-06-01T10:05:28.510Z,100222.26
2019-06-01T10:08:34.361Z,100219.89
2019-06-01T10:11:39.652Z,100212.73
2019-06-01T10:14:44.850Z,100212.77
2019-06-01T10:17:50.070Z,100215.36
2019-06-01T10:20:55.181Z,100208.82
2019-06-01T10:24:00.293Z,100208.82
2019-06-01T10:27:05.611Z,100211.66
2019-06-01T10:30:12.311Z,100202.02
2019-06-01T10:33:17.508Z,100201.75
2019-06-01T10:36:24.606Z,100203.97
2019-06-01T10:39:31.266Z,100206.17
2019-06-01T10:42:37.984Z,100195.39
2019-06-01T10:45:43.407Z,100203.16
2019-06-01T10:48:48.963Z,100198.14
2019-06-01T10:51:54.291Z,100201.17
2019-06-01T10:54:59.478Z,100196.75
2019-06-01T10:58:04.836Z,100200.22
2019-06-01T11:01:09.899Z,100195.20
2019-06-01T11:04:15.171Z,100197.06
2019-06-01T11:07:20.278Z,100194.74
2019-06-01T11:10:25.414Z,100189.61
2019-06-01T11:13:30.624Z,100184.80
2019-06-01T11:16:37.178Z,100173.84
2019-06-01T11:19:43.726Z,100177.96
2019-06-01T11:22:50.098Z,100169.63
2019-06-01T11:25:55.285Z,100162.87
2019-06-01T11:29:00.446Z,100160.16
2019-06-01T11:32:05.721Z,100162.37
2019-06-01T11:35:12.021Z,100164.27
2019-06-01T11:38:17.196Z,100166.91
2019-06-01T11:41:22.385Z,100154.12
2019-06-01T11:44:27.619Z,100152.76
2019-06-01T11:47:32.787Z,100148.09
2019-06-01T11:50:39.026Z,100136.44
2019-06-01T11:53:45.719Z,100137.50
2019-06-01T11:56:52.165Z,100132.45
2019-06-01T11:59:57.372Z,100126.31
2019-06-01T12:03:02.621Z,100124.45
2019-06-01T12:06:07.791Z,100117.76
2019-06-01T12:09:13.093Z,100124.61
2019-06-01T12:12:18.281Z,100127.52
2019-06-01T12:15:26.591Z,100108.86
2019-06-01T12:18:30.431Z,100105.05
2019-06-01T12:21:37.054Z,100109.01
2019-06-01T12:24:43.040Z,100103.94
2019-06-01T12:27:48.414Z,100096.42
2019-06-01T12:30:53.622Z,100092.38
2019-06-01T12:33:58.775Z,100092.98
2019-06-01T12:37:04.092Z,100082.30
2019-06-01T12:40:09.947Z,100084.70
2019-06-01T12:43:15.295Z,100079.73
2019-06-01T12:46:20.539Z,100075.88
2019-06-01T12:49:25.791Z,100072.45
2019-06-01T12:52:30.971Z,100073.97
2019-06-01T12:55:36.136Z,100070.52
2019-06-01T12:58:41.903Z,100069.03
2019-06-01T13:01:47.415Z,100059.78
2019-06-01T13:04:53.076Z,100059.05
2019-06-01T13:08:02.694Z,100053.89
2019-06-01T13:11:05.356Z,100048.97
2019-06-01T13:14:11.658Z,100053.58
2019-06-01T13:17:16.772Z,100049.09
2019-06-01T13:20:21.984Z,100045.89
2019-06-01T13:23:27.183Z,100040.14
2019-06-01T13:26:32.396Z,100034.83
2019-06-01T13:29:37.599Z,100035.75
2019-06-01T13:32:44.025Z,100030.31
2019-06-01T13:35:50.614Z,100019.48
2019-06-01T13:38:55.787Z,100014.91
2019-06-01T13:42:01.077Z,100017.11
2019-06-01T13:45:06.829Z,100013.27
2019-06-01T13:48:12.218Z,100004.81
2019-06-01T13:51:17.388Z,100004.81
2019-06-01T13:54:22.577Z,100002.47
2019-06-01T13:57:27.821Z,100000.71
2019-06-01T14:00:33.014Z,99994.97
2019-06-01T14:03:38.211Z,99981.36
2019-06-01T14:06:43.368Z,99988.13
2019-06-01T14:09:49.084Z,99986.26
2019-06-01T14:12:55.500Z,99966.80
2019-06-01T14:16:00.815Z,99969.98
2019-06-01T14:19:07.086Z,99961.82
2019-06-01T14:22:12.427Z,99957.33
2019-06-01T14:25:18.369Z,99959.03
2019-06-01T14:28:23.480Z,99960.92
2019-06-01T14:31:28.642Z,99963.16
2019-06-01T14:34:33.849Z,99952.50
2019-06-01T14:37:39.000Z,99953.13
2019-06-01T14:40:44.242Z,99948.91
2019-06-01T14:43:49.444Z,99951.93
2019-06-01T14:47:02.302Z,99952.91
2019-06-01T14:50:01.617Z,99954.50
2019-06-01T14:53:06.895Z,99957.91
2019-06-01T14:56:13.387Z,99950.30
2019-06-01T14:59:18.509Z,99946.65
2019-06-01T15:02:23.754Z,99950.03
2019-06-01T15:05:28.885Z,99952.42
2019-06-01T15:08:34.034Z,99941.55
2019-06-01T15:11:39.275Z,99943.32
2019-06-01T15:14:44.450Z,99936.86
2019-06-01T15:17:49.625Z,99934.43
2019-06-01T15:20:55.850Z,99933.13
2019-06-01T15:24:02.233Z,99931.25
2019-06-01T15:27:07.561Z,99933.63
2019-06-01T15:30:14.453Z,99931.92
2019-06-01T15:33:19.811Z,99932.09
2019-06-01T15:36:24.991Z,99931.00
2019-06-01T15:39:30.193Z,99923.42
2019-06-01T15:42:35.339Z,99924.33
2019-06-01T15:45:41.516Z,99921.09
2019-06-01T15:48:46.680Z,99916.75
2019-06-01T15:51:51.939Z,99918.17
2019-06-01T15:54:58.269Z,99907.31
2019-06-01T15:58:03.610Z,99901.02
2019-06-01T16:01:08.714Z,99902.87
2019-06-01T16:04:14.874Z,99902.05
2019-06-01T16:07:20.082Z,99897.62
2019-06-01T16:10:25.353Z,99891.67
2019-06-01T16:13:30.642Z,99887.56
2019-06-01T16:16:35.888Z,99902.11
2019-06-01T16:19:41.109Z,99892.22
2019-06-01T16:22:46.353Z,99890.16
2019-06-01T16:26:04.919Z,99891.41
2019-06-01T16:28:58.593Z,99888.09
2019-06-01T16:32:05.040Z,99894.46
2019-06-01T16:35:11.275Z,99886.86
2019-06-01T16:38:16.452Z,99887.27
2019-06-01T16:41:23.051Z,99886.17
2019-06-01T16:44:28.230Z,99886.14
2019-06-01T16:47:33.329Z,99886.05
2019-06-01T16:50:38.593Z,99888.77
2019-06-01T16:53:44.740Z,99879.95
2019-06-01T16:56:49.852Z,99875.83
2019-06-01T16:59:56.249Z,99870.95
2019-06-01T17:03:03.107Z,99874.49
2019-06-01T17:06:08.327Z,99868.83
2019-06-01T17:09:13.612Z,99867.33
2019-06-01T17:12:18.800Z,99868.62
2019-06-01T17:15:24.034Z,99868.89
2019-06-01T17:18:29.192Z,99872.19
2019-06-01T17:21:34.296Z,99876.42
2019-06-01T17:24:39.516Z,99869.34
2019-06-01T17:27:44.791Z,99875.28
2019-06-01T17:30:51.426Z,99874.03
2019-06-01T17:33:56.811Z,99868.53
2019-06-01T17:37:02.747Z,99868.98
2019-06-01T17:40:08.516Z,99869.56
2019-06-01T17:43:13.729Z,99867.76
2019-06-01T17:46:19.113Z,99872.79
2019-06-01T17:49:24.499Z,99862.12
2019-06-01T17:52:30.681Z,99863.34
2019-06-01T17:55:37.743Z,99864.14
2019-06-01T17:58:43.851Z,99862.14
2019-06-01T18:01:49.077Z,99860.61
2019-06-01T18:04:54.345Z,99857.75
2019-06-01T18:07:59.566Z,99858.88
2019-06-01T18:11:05.984Z,99864.59
2019-06-01T18:14:12.382Z,99865.92
2019-06-01T18:17:17.729Z,99867.79
2019-06-01T18:20:22.934Z,99864.75
2019-06-01T18:23:28.259Z,99862.89
2019-06-01T18:26:33.679Z,99861.52
2019-06-01T18:29:46.741Z,99858.84
2019-06-01T18:32:45.911Z,99861.84
2019-06-01T18:35:51.125Z,99858.95
2019-06-01T18:38:56.273Z,99860.27
2019-06-01T18:42:01.535Z,99870.42
2019-06-01T18:45:08.024Z,99870.16
2019-06-01T18:48:14.400Z,99869.71
2019-06-01T18:51:19.678Z,99872.28
2019-06-01T18:54:24.862Z,99875.00
2019-06-01T18:57:30.515Z,99873.02
2019-06-01T19:00:39.524Z,99869.25
2019-06-01T19:03:43.213Z,99872.36
2019-06-01T19:06:48.389Z,99871.12
2019-06-01T19:09:53.527Z,99864.96
2019-06-01T19:12:58.819Z,99870.66
2019-06-01T19:16:04.008Z,99873.25
2019-06-01T19:19:12.490Z,99868.68
2019-06-01T19:22:18.905Z,99868.83
2019-06-01T19:25:24.083Z,99869.34
2019-06-01T19:28:29.332Z,99873.19
2019-06-01T19:31:35.396Z,99875.50
2019-06-01T19:34:40.746Z,99881.09
2019-06-01T19:37:46.467Z,99878.68
2019-06-01T19:40:51.718Z,99884.20
2019-06-01T19:43:57.266Z,99890.55
2019-06-01T19:47:02.485Z,99892.75
2019-06-01T19:50:08.250Z,99887.83
2019-06-01T19:53:14.636Z,99889.76
2019-06-01T19:56:20.533Z,99899.33
2019-06-01T19:59:26.977Z,99900.39
2019-06-01T20:02:34.328Z,99901.78
2019-06-01T20:05:39.065Z,99905.34
2019-06-01T20:08:44.192Z,99903.09
2019-06-01T20:12:01.436Z,99916.23
2019-06-01T20:14:56.322Z,99911.88
2019-06-01T20:18:01.533Z,99904.22
2019-06-01T20:21:07.918Z,99909.37
2019-06-01T20:24:13.130Z,99912.59
2019-06-01T20:27:19.479Z,99914.56
2019-06-01T20:30:25.213Z,99914.56
2019-06-01T20:33:30.458Z,99919.98
2019-06-01T20:36:35.769Z,99919.98
2019-06-01T20:39:40.950Z,99919.13
2019-06-01T20:42:46.171Z,99911.28
2019-06-01T20:45:51.418Z,99911.28
2019-06-01T20:48:57.745Z,99923.88
2019-06-01T20:52:02.989Z,99925.45
2019-06-01T20:55:09.623Z,99917.63
2019-06-01T20:58:16.193Z,99912.34
2019-06-01T21:01:21.994Z,99913.91
2019-06-01T21:04:27.305Z,99919.64
2019-06-01T21:07:32.542Z,99916.02
2019-06-01T21:10:37.771Z,99921.64
2019-06-01T21:13:42.872Z,99913.91
2019-06-01T21:16:48.082Z,99918.95
2019-06-01T21:19:53.307Z,99921.31
2019-06-01T21:22:58.502Z,99918.81
2019-06-01T21:26:03.753Z,99915.48
2019-06-01T21:29:08.893Z,99918.70
2019-06-01T21:32:15.197Z,99920.27
2019-06-01T21:35:21.381Z,99927.88
2019-06-01T21:38:26.800Z,99929.90
2019-06-01T21:41:33.299Z,99925.78
2019-06-01T21:44:38.501Z,99930.49
2019-06-01T21:47:43.658Z,99923.55
2019-06-01T21:50:48.941Z,99930.15
2019-06-01T21:53:54.136Z,99926.78
2019-06-01T21:56:59.367Z,99932.73
2019-06-01T22:00:07.693Z,99936.00
2019-06-01T22:03:14.485Z,99930.23
2019-06-01T22:06:21.188Z,99926.62
2019-06-01T22:09:27.402Z,99935.91
2019-06-01T22:12:32.732Z,99930.77
2019-06-01T22:15:37.892Z,99933.64
2019-06-01T22:18:43.093Z,99928.74
2019-06-01T22:21:48.305Z,99926.72
2019-06-01T22:24:53.856Z,99926.45
2019-06-01T22:27:58.981Z,99927.72
2019-06-01T22:31:04.295Z,99920.42
2019-06-01T22:34:09.463Z,99925.11
2019-06-01T22:37:14.708Z,99922.84
2019-06-01T22:40:20.873Z,99918.45
2019-06-01T22:43:38.994Z,99923.77
2019-06-01T22:46:33.195Z,99916.65
2019-06-01T22:49:38.275Z,99917.50
2019-06-01T22:52:43.459Z,99919.05
2019-06-01T22:55:48.724Z,99926.88
2019-06-01T22:58:53.873Z,99916.91
2019-06-01T23:01:59.100Z,99916.64
2019-06-01T23:05:05.507Z,99918.70
2019-06-01T23:08:10.733Z,99915.17
2019-06-01T23:11:15.884Z,99916.03
2019-06-01T23:14:21.371Z,99916.17
2019-06-01T23:17:27.952Z,99915.70
2019-06-01T23:20:33.291Z,99906.95
2019-06-01T23:23:38.519Z,99903.81
2019-06-01T23:26:43.679Z,99907.17
2019-06-01T23:29:48.831Z,99908.23
2019-06-01T23:32:54.002Z,99903.28
2019-06-01T23:35:59.288Z,99900.46
2019-06-01T23:39:05.216Z,99901.81
2019-06-01T23:42:10.587Z,99906.48
2019-06-01T23:45:15.816Z,99900.63
2019-06-01T23:48:20.990Z,99898.61
2019-06-01T23:51:27.312Z,99896.56
2019-06-01T23:54:33.860Z,99893.80
2019-06-01T23:57:40.079Z,99894.11
